Time;durP1;ratioP1;P1;durP2;ratioP2;P2;SDS_P1;SDS_P2;PMS_P1;PMS_P2;Temp;Humidity;BMP_temperature;BMP_pressure;BME280_temperature;BME280_humidity;BME280_pressure;Samples;Min_cycle;Max_cycle;Signal;HPM_P1;HPM_P2
2022/02/03 00:26:07;;;;;;;11.70;10.60;;;6.40;99.90;;;;;;6336835;22;20376;-85
2022/02/03 00:28:40;;;;;;;12.10;10.47;;;6.40;99.90;;;;;;6292295;22;20748;-85
2022/02/03 00:31:12;;;;;;;12.00;10.43;;;6.40;99.90;;;;;;6297378;22;20422;-85
2022/02/03 00:48:31;;;;;;;10.90;9.80;;;6.50;99.90;;;;;;6324295;22;20375;-85
2022/02/03 00:50:59;;;;;;;10.77;9.77;;;6.50;99.90;;;;;;6297546;22;20450;-85
2022/02/03 00:53:32;;;;;;;9.73;8.77;;;6.50;99.90;;;;;;6325649;22;20473;-86
2022/02/03 00:56:11;;;;;;;10.80;9.20;;;6.50;99.90;;;;;;6320183;22;20383;-86
2022/02/03 00:59:09;;;;;;;12.07;10.17;;;6.50;99.90;;;;;;6294246;22;20781;-85
2022/02/03 01:02:44;;;;;;;11.07;9.90;;;6.50;99.90;;;;;;6320892;22;20386;-85
2022/02/03 01:05:44;;;;;;;;;;;;;;;;;;;;;
2022/02/03 01:44:49;;;;;;;9.53;8.47;;;6.60;99.90;;;;;;6289841;22;20370;-84
2022/02/03 01:47:29;;;;;;;8.17;7.37;;;6.60;99.90;;;;;;6262324;22;20397;-84
2022/02/03 01:55:36;;;;;;;8.73;7.80;;;6.70;99.90;;;;;;6288703;22;20732;-84
2022/02/03 01:58:17;;;;;;;7.77;7.07;;;6.70;99.90;;;;;;6263089;22;20395;-84
2022/02/03 02:01:06;;;;;;;8.50;7.73;;;6.70;99.90;;;;;;6261129;22;20459;-84
2022/02/03 02:04:24;;;;;;;8.40;7.60;;;6.70;99.90;;;;;;6290826;22;20388;-84
2022/02/03 02:07:31;;;;;;;7.90;7.10;;;6.70;99.90;;;;;;6261889;22;20809;-86
2022/02/03 02:14:01;;;;;;;7.83;7.03;;;6.70;99.90;;;;;;6290348;22;20387;-84
2022/02/03 02:17:10;;;;;;;7.97;7.17;;;6.70;99.90;;;;;;6263526;22;20407;-84
2022/02/03 02:39:48;;;;;;;9.13;8.33;;;6.50;99.90;;;;;;6293327;22;20826;-84
2022/02/03 02:45:09;;;;;;;11.03;9.10;;;6.50;99.90;;;;;;6304798;22;20475;-84
2022/02/03 02:47:46;;;;;;;9.83;8.87;;;6.50;99.90;;;;;;6265256;22;20386;-84
2022/02/03 02:50:43;;;;;;;11.03;9.57;;;6.50;99.90;;;;;;6291577;22;20383;-84
2022/02/03 02:53:35;;;;;;;9.80;8.80;;;6.50;99.90;;;;;;6266751;22;20497;-84
2022/02/03 02:59:49;;;;;;;10.00;9.03;;;6.50;99.90;;;;;;6271683;22;20418;-84
2022/02/03 03:30:28;;;;;;;9.63;8.67;;;6.50;99.90;;;;;;6294035;22;20408;-84
2022/02/03 03:33:14;;;;;;;8.03;7.23;;;6.50;99.90;;;;;;6269733;22;20744;-83
2022/02/03 03:35:48;;;;;;;8.67;7.20;;;6.50;99.90;;;;;;6265878;22;20378;-84
2022/02/03 03:38:25;;;;;;;10.60;8.63;;;6.60;99.90;;;;;;6265512;22;20422;-84
2022/02/03 03:40:55;;;;;;;8.70;7.60;;;6.60;99.90;;;;;;6264446;22;20389;-84
2022/02/03 03:43:41;;;;;;;8.90;7.83;;;6.70;99.90;;;;;;6263450;22;20375;-84
2022/02/03 03:46:32;;;;;;;8.23;7.40;;;6.70;99.90;;;;;;6266165;22;20380;-84
2022/02/03 03:49:03;;;;;;;7.43;6.73;;;6.70;99.90;;;;;;6264784;22;20372;-85
2022/02/03 03:51:53;;;;;;;8.47;7.40;;;6.70;99.90;;;;;;6264377;22;20473;-85
2022/02/03 04:30:40;;;;;;;10.30;9.30;;;6.80;99.90;;;;;;6284342;22;20371;-85
2022/02/03 04:39:26;;;;;;;9.80;8.80;;;6.80;99.90;;;;;;6286188;22;20567;-84
2022/02/03 04:54:48;;;;;;;;;;;;;;;;;;;;;
2022/02/03 04:58:38;;;;;;;9.80;8.90;;;6.60;99.90;;;;;;6258672;22;20603;-85
2022/02/03 05:00:37;;;;;;;10.20;9.13;;;6.50;99.90;;;;;;6272083;22;20862;-85
2022/02/03 05:13:57;;;;;;;;;;;;;;;;;;;;;
2022/02/03 05:25:50;;;;;;;11.27;8.63;;;6.30;99.90;;;;;;6283149;22;20363;-85
2022/02/03 05:32:10;;;;;;;8.53;7.73;;;6.20;99.90;;;;;;6279792;22;20470;-85
2022/02/03 05:44:49;;;;;;;7.93;7.13;;;6.30;99.90;;;;;;6286321;22;20742;-85
2022/02/03 05:47:37;;;;;;;7.93;6.90;;;6.20;99.90;;;;;;6258913;22;20418;-85
2022/02/03 06:00:58;;;;;;;7.97;7.17;;;6.20;99.90;;;;;;6300126;22;20388;-86
2022/02/03 06:07:14;;;;;;;11.17;8.70;;;6.10;99.90;;;;;;6294684;22;20456;-88
2022/02/03 06:12:57;;;;;;;9.83;8.70;;;6.00;99.90;;;;;;6280793;22;20948;-85
2022/02/03 06:21:59;;;;;;;10.23;9.20;;;5.90;99.90;;;;;;6285727;22;20355;-88
2022/02/03 06:24:13;;;;;;;9.30;8.20;;;5.90;99.90;;;;;;6272826;22;20395;-86
2022/02/03 06:29:25;;;;;;;9.63;8.60;;;5.90;99.90;;;;;;6279604;22;20408;-86
2022/02/03 06:31:52;;;;;;;10.43;9.07;;;6.00;99.90;;;;;;6252430;22;20493;-85
2022/02/03 06:37:22;;;;;;;9.47;8.50;;;6.00;99.90;;;;;;6285667;22;20595;-85
2022/02/03 06:39:48;;;;;;;9.40;8.53;;;5.90;99.90;;;;;;6248980;22;20923;-84
2022/02/03 06:42:14;;;;;;;8.97;8.07;;;5.90;99.90;;;;;;6251440;22;20396;-84
2022/02/03 06:44:47;;;;;;;7.90;7.10;;;5.90;99.90;;;;;;6254364;22;20384;-83
2022/02/03 06:50:15;;;;;;;8.10;7.30;;;5.80;99.90;;;;;;6276375;22;20990;-84
2022/02/03 06:52:52;;;;;;;8.17;7.37;;;5.90;99.90;;;;;;6257913;22;20431;-84
2022/02/03 06:58:04;;;;;;;8.47;7.67;;;6.00;99.90;;;;;;6294751;22;20420;-84
2022/02/03 07:00:36;;;;;;;9.80;8.70;;;6.10;99.90;;;;;;6222616;22;20385;-85
2022/02/03 07:03:06;;;;;;;8.73;7.60;;;6.20;99.90;;;;;;6252627;22;20866;-84
2022/02/03 07:05:45;;;;;;;8.40;7.70;;;6.20;99.90;;;;;;6250498;22;20835;-87
2022/02/03 07:08:19;;;;;;;50.37;42.23;;;6.30;99.90;;;;;;6258513;22;20383;-85
2022/02/03 07:13:25;;;;;;;7.60;6.90;;;6.40;99.90;;;;;;6284425;22;20745;-86
2022/02/03 07:15:51;;;;;;;7.53;6.70;;;6.50;99.90;;;;;;6254109;22;20673;-82
2022/02/03 07:18:20;;;;;;;8.10;7.40;;;6.50;99.90;;;;;;6251250;22;20161;-81
2022/02/03 07:20:49;;;;;;;8.90;8.00;;;6.50;99.90;;;;;;6256200;22;20641;-82
2022/02/03 07:23:15;;;;;;;8.30;7.40;;;6.60;99.90;;;;;;6254800;22;20425;-82
2022/02/03 07:25:42;;;;;;;7.63;6.93;;;6.60;99.90;;;;;;6251013;22;21155;-83
2022/02/03 07:28:08;;;;;;;7.00;6.30;;;6.70;99.90;;;;;;6253117;22;20398;-82
2022/02/03 07:30:35;;;;;;;7.53;6.80;;;6.80;99.90;;;;;;6250266;22;20962;-82
2022/02/03 07:33:02;;;;;;;6.87;6.37;;;6.80;99.90;;;;;;6251197;22;21040;-83
2022/02/03 07:35:30;;;;;;;8.20;7.40;;;6.80;99.90;;;;;;6256054;22;20388;-83
2022/02/03 07:37:55;;;;;;;8.70;7.20;;;6.90;99.90;;;;;;6253371;22;20430;-82
2022/02/03 07:40:23;;;;;;;8.13;7.30;;;6.90;99.90;;;;;;6252794;22;20643;-83
2022/02/03 07:42:51;;;;;;;9.13;6.47;;;7.00;99.90;;;;;;6253248;22;20181;-82
2022/02/03 07:45:18;;;;;;;8.87;7.97;;;7.10;99.90;;;;;;6248847;22;20416;-82
2022/02/03 07:47:50;;;;;;;9.07;8.20;;;7.10;99.90;;;;;;6252504;22;20384;-84
2022/02/03 07:50:20;;;;;;;8.10;7.40;;;7.20;99.90;;;;;;6260820;22;20471;-84
2022/02/03 07:52:51;;;;;;;7.70;7.00;;;7.30;99.90;;;;;;6253611;22;20762;-84
2022/02/03 07:55:20;;;;;;;7.17;6.50;;;7.30;99.90;;;;;;6257791;22;20442;-84
2022/02/03 07:57:51;;;;;;;7.87;7.17;;;7.40;99.90;;;;;;6251814;22;20407;-86
2022/02/03 08:00:33;;;;;;;7.93;7.23;;;7.40;99.90;;;;;;6257821;22;20409;-84
2022/02/03 08:03:13;;;;;;;11.27;9.40;;;7.40;99.90;;;;;;6259295;22;20404;-83
2022/02/03 08:05:41;;;;;;;11.97;9.50;;;7.50;99.90;;;;;;6257864;22;20379;-83
2022/02/03 08:10:45;;;;;;;10.73;8.50;;;7.50;99.90;;;;;;6300299;22;21299;-84
2022/02/03 08:13:16;;;;;;;11.47;8.27;;;7.40;99.90;;;;;;6260407;22;20399;-84
2022/02/03 08:15:43;;;;;;;10.43;8.50;;;7.50;99.90;;;;;;6256654;22;20403;-85
2022/02/03 08:18:15;;;;;;;9.60;7.90;;;7.60;99.90;;;;;;6231270;22;20951;-85
2022/02/03 08:20:48;;;;;;;6.67;5.97;;;7.60;99.90;;;;;;6256881;22;20376;-84
2022/02/03 08:26:13;;;;;;;7.77;5.83;;;7.60;99.90;;;;;;6299232;22;20441;-85
2022/02/03 08:31:37;;;;;;;5.80;5.30;;;7.80;99.90;;;;;;6298490;22;20885;-85
2022/02/03 08:34:03;;;;;;;6.60;5.77;;;7.90;99.90;;;;;;6257545;22;20400;-86
2022/02/03 08:36:34;;;;;;;7.13;5.90;;;7.90;99.90;;;;;;6258523;22;20713;-86
2022/02/03 08:39:07;;;;;;;6.77;6.10;;;8.00;99.90;;;;;;6258761;22;20153;-85
2022/02/03 08:41:33;;;;;;;28.37;25.40;;;8.10;99.90;;;;;;6262006;22;20583;-85
2022/02/03 08:44:02;;;;;;;5.83;5.33;;;8.40;99.90;;;;;;6261763;22;20388;-85
2022/02/03 08:46:46;;;;;;;4.87;4.57;;;8.50;99.90;;;;;;6256304;22;20428;-87
2022/02/03 08:49:18;;;;;;;5.33;4.77;;;8.50;99.90;;;;;;6257432;22;20387;-86
2022/02/03 08:54:24;;;;;;;3.70;3.40;;;8.60;99.90;;;;;;6287616;22;20369;-85
2022/02/03 08:57:02;;;;;;;3.97;3.67;;;8.50;99.90;;;;;;6259210;22;20392;-86
2022/02/03 09:00:13;;;;;;;3.80;3.50;;;8.60;99.90;;;;;;6261664;22;20382;-85
2022/02/03 09:32:29;;;;;;;3.30;3.10;;;9.00;99.90;;;;;;6287448;22;21132;-85
2022/02/03 09:38:34;;;;;;;4.37;4.07;;;9.20;99.90;;;;;;6302257;22;20142;-85
2022/02/03 09:41:14;;;;;;;3.87;3.40;;;9.20;99.90;;;;;;6260332;22;20737;-85
2022/02/03 09:57:33;;;;;;;5.87;5.37;;;9.80;99.90;;;;;;6299514;22;20410;-85
2022/02/03 10:01:05;;;;;;;5.13;4.63;;;9.90;99.90;;;;;;6261696;22;20384;-86
2022/02/03 10:09:01;;;;;;;4.43;3.13;;;10.00;99.90;;;;;;6299400;22;20427;-86
2022/02/03 10:11:58;;;;;;;3.90;3.60;;;9.90;99.90;;;;;;6260541;22;20420;-86
2022/02/03 10:14:35;;;;;;;3.53;3.10;;;9.80;99.90;;;;;;6288402;22;20207;-87
2022/02/03 10:17:07;;;;;;;4.03;3.63;;;10.00;99.90;;;;;;6262109;22;20395;-86
2022/02/03 10:19:43;;;;;;;3.97;3.67;;;9.70;99.90;;;;;;6239868;22;20400;-87
2022/02/03 10:24:59;;;;;;;3.80;3.50;;;9.50;99.90;;;;;;6288508;22;20453;-88
2022/02/03 10:27:33;;;;;;;4.30;3.97;;;9.70;99.90;;;;;;6261440;22;20383;-85
2022/02/03 10:30:13;;;;;;;4.20;3.90;;;10.00;99.90;;;;;;6261743;22;20434;-87
2022/02/03 10:32:48;;;;;;;3.87;3.57;;;10.10;99.90;;;;;;6258424;22;20470;-86
2022/02/03 10:35:18;;;;;;;4.23;3.93;;;10.30;99.90;;;;;;6289729;22;20371;-87
2022/02/03 10:38:08;;;;;;;9.70;6.33;;;10.70;99.90;;;;;;6260104;22;20392;-86
2022/02/03 10:40:56;;;;;;;4.40;4.10;;;11.10;99.90;;;;;;6230335;22;20842;-87
2022/02/03 10:58:28;;;;;;;2.73;2.50;;;12.30;99.90;;;;;;6266669;22;20770;-86
2022/02/03 11:08:14;;;;;;;2.37;2.17;;;12.30;99.90;;;;;;6258685;22;20386;-83
2022/02/03 11:10:45;;;;;;;3.00;2.80;;;12.10;99.90;;;;;;6229401;22;20440;-83
2022/02/03 11:13:15;;;;;;;4.17;3.50;;;11.90;99.90;;;;;;6228290;22;20483;-83
2022/02/03 11:15:53;;;;;;;2.43;2.23;;;11.70;99.90;;;;;;6229311;22;20412;-83
2022/02/03 11:19:12;;;;;;;2.60;2.40;;;11.60;99.90;;;;;;6229166;22;20388;-83
2022/02/03 11:25:22;;;;;;;2.53;2.33;;;11.30;99.90;;;;;;6235310;22;20458;-83
2022/02/03 11:55:39;;;;;;;;;;;;;;;;;;;;;
2022/02/03 12:07:09;;;;;;;1.87;1.60;;;11.20;99.90;;;;;;6095718;23;20412;-88
2022/02/03 12:12:59;;;;;;;1.60;1.40;;;11.30;99.90;;;;;;5998977;23;20447;-87
2022/02/03 12:16:55;;;;;;;1.20;1.10;;;11.40;99.90;;;;;;6105332;23;20709;-87
2022/02/03 12:21:52;;;;;;;1.00;1.00;;;11.70;99.90;;;;;;6115578;22;20848;-86
2022/02/03 12:24:34;;;;;;;8.13;1.87;;;11.70;99.90;;;;;;6230782;22;20389;-86
2022/02/03 12:27:11;;;;;;;1.00;1.00;;;11.40;99.90;;;;;;6231967;22;20392;-85
2022/02/03 12:29:47;;;;;;;1.73;1.63;;;11.40;99.90;;;;;;6227725;22;20889;-85
2022/02/03 12:40:13;;;;;;;1.20;1.10;;;11.70;99.90;;;;;;6268488;22;20449;-85
2022/02/03 12:43:41;;;;;;;1.50;1.40;;;11.80;99.90;;;;;;6231638;22;20389;-85
2022/02/03 12:45:36;;;;;;;1.50;1.40;;;11.80;99.90;;;;;;6230615;22;20385;-85
2022/02/03 12:48:04;;;;;;;1.90;1.47;;;12.10;99.90;;;;;;6228326;22;20496;-86
2022/02/03 12:50:33;;;;;;;1.50;1.40;;;12.20;99.90;;;;;;6231809;22;20385;-85
2022/02/03 12:53:00;;;;;;;1.13;1.13;;;12.30;99.90;;;;;;6232664;22;20436;-85
2022/02/03 12:55:32;;;;;;;1.20;1.17;;;11.90;99.90;;;;;;6233531;22;20391;-85
2022/02/03 12:58:04;;;;;;;3.53;1.50;;;11.80;99.90;;;;;;6233488;22;20381;-85
2022/02/03 13:00:44;;;;;;;1.63;1.53;;;11.80;99.90;;;;;;6230776;22;20403;-86
2022/02/03 13:03:14;;;;;;;1.40;1.30;;;11.80;99.90;;;;;;6229264;22;20442;-86
2022/02/03 13:05:48;;;;;;;1.50;1.13;;;11.60;99.90;;;;;;6231672;22;20547;-85
2022/02/03 13:08:14;;;;;;;1.40;1.30;;;11.60;99.90;;;;;;6233139;22;20396;-85
2022/02/03 13:10:40;;;;;;;2.03;1.40;;;11.50;99.90;;;;;;6232774;22;20423;-86
2022/02/03 13:13:23;;;;;;;1.43;1.33;;;11.60;99.90;;;;;;6230755;22;20392;-86
2022/02/03 13:15:51;;;;;;;1.53;1.40;;;11.70;99.90;;;;;;6229592;22;20466;-86
2022/02/03 13:18:31;;;;;;;1.57;1.47;;;11.70;99.90;;;;;;6230877;22;20407;-86
2022/02/03 13:21:05;;;;;;;1.50;1.40;;;11.50;99.90;;;;;;6230508;22;20376;-86
2022/02/03 13:23:41;;;;;;;2.23;1.70;;;11.30;99.90;;;;;;6231050;22;20432;-86
2022/02/03 13:26:13;;;;;;;1.30;1.20;;;11.20;99.90;;;;;;6258061;22;20396;-85
2022/02/03 13:28:56;;;;;;;1.90;1.70;;;11.00;99.90;;;;;;6227807;22;20391;-85
2022/02/03 13:31:51;;;;;;;2.13;1.30;;;10.90;99.90;;;;;;6228880;22;20531;-86
2022/02/03 13:34:47;;;;;;;2.00;1.90;;;10.90;99.90;;;;;;6229795;22;20431;-85
2022/02/03 13:37:20;;;;;;;1.60;1.30;;;10.90;99.90;;;;;;6254690;22;20389;-85
2022/02/03 13:39:47;;;;;;;5.57;2.10;;;10.90;99.90;;;;;;6229471;22;20773;-85
2022/02/03 13:42:15;;;;;;;1.70;1.60;;;11.10;99.90;;;;;;6229704;22;21368;-87
2022/02/03 13:44:41;;;;;;;5.30;1.53;;;11.30;99.90;;;;;;6229938;22;20443;-83
2022/02/03 13:47:24;;;;;;;1.40;1.30;;;11.50;99.90;;;;;;6228444;22;20848;-82
2022/02/03 13:50:01;;;;;;;2.20;1.83;;;11.50;99.90;;;;;;6227222;22;20311;-84
2022/02/03 13:52:38;;;;;;;2.47;2.00;;;11.60;99.90;;;;;;6252165;22;20436;-85
2022/02/03 14:22:01;;;;;;;2.43;1.90;;;11.70;99.90;;;;;;6260162;22;20695;-83
2022/02/03 14:29:45;;;;;;;2.20;1.83;;;11.60;99.90;;;;;;6258576;22;20786;-84
2022/02/03 14:32:13;;;;;;;1.87;1.77;;;11.50;99.90;;;;;;6240205;22;20842;-83
2022/02/03 14:34:39;;;;;;;2.33;1.90;;;11.40;99.90;;;;;;6242940;22;20866;-83
2022/02/03 14:37:12;;;;;;;3.10;1.73;;;11.20;99.90;;;;;;6233246;22;20550;-83
2022/02/03 14:42:35;;;;;;;3.80;1.80;;;10.90;99.90;;;;;;6209557;22;20393;-83
2022/02/03 14:45:01;;;;;;;2.67;2.27;;;10.80;99.90;;;;;;6228880;22;20460;-83
2022/02/03 14:47:29;;;;;;;2.20;2.00;;;10.80;99.90;;;;;;6229856;22;20923;-83
2022/02/03 14:49:55;;;;;;;2.57;2.37;;;10.80;99.90;;;;;;6230178;22;20472;-83
2022/02/03 14:52:31;;;;;;;1.93;1.83;;;10.80;99.90;;;;;;6230558;22;20441;-83
2022/02/03 15:00:27;;;;;;;2.67;2.00;;;10.70;99.90;;;;;;6255602;22;20431;-83
2022/02/03 15:02:53;;;;;;;2.97;2.77;;;10.70;99.90;;;;;;6227263;22;20389;-83
2022/02/03 15:05:39;;;;;;;2.37;2.17;;;10.60;99.90;;;;;;6227415;22;20392;-83
2022/02/03 15:08:14;;;;;;;2.57;2.37;;;10.50;99.90;;;;;;6227637;22;20791;-83
2022/02/03 15:10:44;;;;;;;3.83;2.67;;;10.50;99.90;;;;;;6227703;22;20921;-83
2022/02/03 15:13:16;;;;;;;3.27;2.97;;;10.40;99.90;;;;;;6228239;22;20498;-82
2022/02/03 15:15:44;;;;;;;3.10;2.60;;;10.30;99.90;;;;;;6228870;22;20400;-82
2022/02/03 15:18:10;;;;;;;2.13;1.97;;;10.30;99.90;;;;;;6228542;22;21327;-82
2022/02/03 15:20:37;;;;;;;2.63;2.43;;;10.20;99.90;;;;;;6232005;22;20545;-82
2022/02/03 15:23:04;;;;;;;5.17;4.30;;;10.20;99.90;;;;;;6228846;22;20301;-82
2022/02/03 15:25:30;;;;;;;6.77;4.50;;;10.20;99.90;;;;;;6229124;22;20381;-82
2022/02/03 15:27:57;;;;;;;5.27;4.17;;;10.20;99.90;;;;;;6228731;22;20389;-82
2022/02/03 15:30:26;;;;;;;2.90;2.33;;;10.10;99.90;;;;;;6227971;22;20905;-83
2022/02/03 15:32:52;;;;;;;2.83;2.53;;;10.10;99.90;;;;;;6226728;22;20773;-83
2022/02/03 15:35:27;;;;;;;2.60;2.40;;;10.00;99.90;;;;;;6226252;22;20416;-83
2022/02/03 15:37:53;;;;;;;9.87;5.83;;;10.00;99.90;;;;;;6227545;22;20401;-82
2022/02/03 15:40:23;;;;;;;10.70;7.40;;;10.00;99.90;;;;;;6228823;22;20408;-82
2022/02/03 15:42:55;;;;;;;6.33;4.63;;;9.90;99.90;;;;;;6228304;22;20716;-82
2022/02/03 15:45:21;;;;;;;4.10;3.50;;;9.90;99.90;;;;;;6229022;22;20753;-82
2022/02/03 15:47:55;;;;;;;3.70;3.30;;;9.90;99.90;;;;;;6229105;22;20446;-82
2022/02/03 16:13:22;;;;;;;5.83;4.77;;;9.40;99.90;;;;;;6255115;22;20376;-82
2022/02/03 16:17:45;;;;;;;4.47;4.07;;;9.20;99.90;;;;;;6265867;22;20409;-82
2022/02/03 16:20:19;;;;;;;4.60;4.20;;;9.20;99.90;;;;;;6227964;22;20440;-82
2022/02/03 16:26:02;;;;;;;7.33;3.57;;;9.10;99.90;;;;;;6264915;22;21059;-82
2022/02/03 16:53:10;;;;;;;10.60;5.50;;;8.20;99.90;;;;;;6121966;23;20443;-83
2022/02/03 16:55:38;;;;;;;13.17;7.83;;;8.10;99.90;;;;;;6225590;22;20393;-82
2022/02/03 16:58:07;;;;;;;6.63;5.53;;;8.10;99.90;;;;;;6222308;22;20212;-83
2022/02/03 17:00:33;;;;;;;10.53;6.60;;;8.10;99.90;;;;;;6219802;22;20401;-82
2022/02/03 17:02:59;;;;;;;5.47;5.00;;;8.10;99.90;;;;;;6222430;22;20392;-83
2022/02/03 17:05:26;;;;;;;8.47;4.70;;;8.10;99.90;;;;;;6223916;22;20404;-83
2022/02/03 17:07:51;;;;;;;3.53;3.20;;;8.10;99.90;;;;;;6221594;22;20400;-83
2022/02/03 17:10:17;;;;;;;7.07;4.60;;;8.10;99.90;;;;;;6226493;22;20400;-83
2022/02/03 17:12:43;;;;;;;4.77;3.43;;;8.10;99.90;;;;;;6221807;22;20194;-83
2022/02/03 17:15:09;;;;;;;5.17;4.07;;;8.10;99.90;;;;;;6219113;22;20596;-83
2022/02/03 17:17:35;;;;;;;3.40;3.10;;;8.00;99.90;;;;;;6219062;22;20232;-84
2022/02/03 17:20:01;;;;;;;3.97;3.67;;;7.90;99.90;;;;;;6221332;22;20775;-84
2022/02/03 17:22:32;;;;;;;5.40;4.30;;;7.90;99.90;;;;;;6224481;22;20158;-84
2022/02/03 17:25:21;;;;;;;5.80;5.07;;;7.90;99.90;;;;;;6223974;22;20158;-84
2022/02/03 17:27:55;;;;;;;5.47;4.20;;;7.90;99.90;;;;;;6226006;22;20479;-84
2022/02/03 17:31:11;;;;;;;4.17;3.50;;;7.80;99.90;;;;;;6222205;22;20398;-83
2022/02/03 18:11:47;;;;;;;6.40;5.13;;;7.20;99.90;;;;;;6259768;22;20796;-84
2022/02/03 18:36:12;;;;;;;8.13;6.97;;;6.90;99.90;;;;;;6249401;22;20181;-84
2022/02/03 18:47:48;;;;;;;5.40;4.90;;;7.00;99.90;;;;;;6251993;22;20480;-85
2022/02/03 19:00:09;;;;;;;6.73;6.03;;;6.80;99.90;;;;;;6250854;22;20887;-84
2022/02/03 19:25:26;;;;;;;5.20;4.70;;;6.70;99.90;;;;;;6248810;22;20378;-84
2022/02/03 20:03:42;;;;;;;7.07;6.37;;;6.30;99.90;;;;;;6261026;22;20512;-84
2022/02/03 20:06:10;;;;;;;6.30;5.70;;;6.30;99.90;;;;;;6244583;22;20800;-84
2022/02/03 20:08:52;;;;;;;9.47;6.53;;;6.40;99.90;;;;;;6218088;22;20404;-84
2022/02/03 20:11:19;;;;;;;8.47;5.90;;;6.40;99.90;;;;;;6225443;22;20392;-84
2022/02/03 20:13:47;;;;;;;7.40;6.70;;;6.40;99.90;;;;;;6226229;22;20433;-84
2022/02/03 20:16:19;;;;;;;5.80;5.23;;;6.30;99.90;;;;;;6226575;22;20783;-84
2022/02/03 20:18:47;;;;;;;6.23;5.63;;;6.30;99.90;;;;;;6224819;22;20396;-85
2022/02/03 20:21:13;;;;;;;8.43;5.63;;;6.30;99.90;;;;;;6221700;22;20778;-83
2022/02/03 20:23:43;;;;;;;5.80;5.20;;;6.30;99.90;;;;;;6218728;22;20396;-83
2022/02/03 20:26:14;;;;;;;5.07;4.67;;;6.20;99.90;;;;;;6220600;22;20562;-83
2022/02/03 20:28:47;;;;;;;5.53;5.03;;;6.20;99.90;;;;;;6222191;22;20385;-83
2022/02/03 20:31:12;;;;;;;6.27;5.77;;;6.10;99.90;;;;;;6219083;22;20477;-84
2022/02/03 20:34:00;;;;;;;5.90;5.40;;;6.10;99.90;;;;;;6224344;22;20915;-84
2022/02/03 20:36:32;;;;;;;6.47;5.50;;;6.10;99.90;;;;;;6221514;22;20165;-84
2022/02/03 20:39:00;;;;;;;6.27;5.67;;;6.10;99.90;;;;;;6227362;22;20403;-84
2022/02/03 20:41:47;;;;;;;6.00;5.40;;;6.00;99.90;;;;;;6219770;22;20885;-84
2022/02/03 20:44:18;;;;;;;5.90;5.40;;;6.10;99.90;;;;;;6216647;22;20389;-84
2022/02/03 20:46:48;;;;;;;6.20;5.60;;;6.10;99.90;;;;;;6223392;22;20389;-84
2022/02/03 20:49:16;;;;;;;5.33;4.83;;;6.10;99.90;;;;;;6222685;22;20381;-84
2022/02/03 20:51:45;;;;;;;5.10;4.70;;;6.10;99.90;;;;;;6219848;22;20497;-84
2022/02/03 20:54:20;;;;;;;7.20;6.20;;;6.10;99.90;;;;;;6221199;22;20451;-84
2022/02/03 20:56:48;;;;;;;7.10;6.10;;;6.10;99.90;;;;;;6220897;22;20390;-84
2022/02/03 20:59:14;;;;;;;6.63;5.60;;;6.00;99.90;;;;;;6224317;22;20973;-84
2022/02/03 21:01:43;;;;;;;6.80;6.07;;;6.10;99.90;;;;;;6231592;22;20385;-84
2022/02/03 21:04:26;;;;;;;6.00;5.50;;;6.10;99.90;;;;;;6258483;22;20667;-84
2022/02/03 21:06:52;;;;;;;6.07;5.20;;;6.10;99.90;;;;;;6226228;22;20778;-83
2022/02/03 21:09:18;;;;;;;6.70;6.00;;;6.10;99.90;;;;;;6221437;22;20381;-84
2022/02/03 21:12:02;;;;;;;6.47;5.87;;;6.10;99.90;;;;;;6221821;22;20233;-84
2022/02/03 21:14:29;;;;;;;5.70;5.23;;;6.00;99.90;;;;;;6222922;22;20166;-84
2022/02/03 21:16:54;;;;;;;6.50;5.90;;;5.90;99.90;;;;;;6221614;22;20920;-84
2022/02/03 21:19:22;;;;;;;7.30;6.60;;;5.90;99.90;;;;;;6223940;22;20680;-84
2022/02/03 21:21:47;;;;;;;6.60;5.70;;;5.90;99.90;;;;;;6221768;22;20158;-83
2022/02/03 21:24:13;;;;;;;6.27;5.67;;;5.90;99.90;;;;;;6222737;22;20396;-85
2022/02/03 21:26:40;;;;;;;5.10;4.67;;;5.80;99.90;;;;;;6237604;22;20157;-83
2022/02/03 21:29:06;;;;;;;5.37;4.90;;;5.70;99.90;;;;;;6231472;22;20151;-84
2022/02/03 21:31:32;;;;;;;5.33;4.83;;;5.70;99.90;;;;;;6234502;22;20389;-85
2022/02/03 21:33:58;;;;;;;5.60;4.97;;;5.80;99.90;;;;;;6224304;22;20651;-85
2022/02/03 21:36:32;;;;;;;5.17;4.77;;;5.90;99.90;;;;;;6248926;22;20674;-83
2022/02/03 21:38:58;;;;;;;5.27;4.87;;;5.80;99.90;;;;;;6221370;22;20385;-83
2022/02/03 21:41:24;;;;;;;5.63;5.13;;;5.90;99.90;;;;;;6222370;22;20695;-83
2022/02/03 21:43:50;;;;;;;6.40;5.80;;;5.90;99.90;;;;;;6225069;22;20491;-83
2022/02/03 21:46:17;;;;;;;6.87;6.17;;;5.90;99.90;;;;;;6222449;22;20189;-84
2022/02/03 21:48:48;;;;;;;6.90;6.20;;;5.90;99.90;;;;;;6227241;22;20395;-83
2022/02/03 21:51:15;;;;;;;6.77;6.17;;;5.90;99.90;;;;;;6223990;22;20381;-84
2022/02/03 21:53:41;;;;;;;6.53;5.93;;;5.90;99.90;;;;;;6222167;22;20916;-84
2022/02/03 21:56:12;;;;;;;7.30;6.60;;;5.80;99.90;;;;;;6222211;22;20432;-83
2022/02/03 21:58:38;;;;;;;9.73;8.83;;;5.80;99.90;;;;;;6219420;22;20410;-82
2022/02/03 22:01:03;;;;;;;11.20;8.73;;;5.90;99.90;;;;;;6223198;22;21174;-82
2022/02/03 22:03:30;;;;;;;9.07;7.77;;;5.90;99.90;;;;;;6224376;22;20168;-82
2022/02/03 22:05:58;;;;;;;8.63;7.73;;;6.00;99.90;;;;;;6224413;22;20242;-82
2022/02/03 22:08:25;;;;;;;9.50;8.60;;;5.90;99.90;;;;;;6221938;22;20458;-83
2022/02/03 22:10:51;;;;;;;9.90;8.90;;;5.90;99.90;;;;;;6222547;22;20405;-83
2022/02/03 22:13:18;;;;;;;9.43;8.20;;;5.90;99.90;;;;;;6223317;22;20907;-82
2022/02/03 22:15:44;;;;;;;9.50;8.50;;;6.00;99.90;;;;;;6219882;22;20401;-83
2022/02/03 22:18:15;;;;;;;9.73;8.70;;;6.00;99.90;;;;;;6220459;22;20666;-82
2022/02/03 22:20:57;;;;;;;10.07;8.30;;;6.00;99.90;;;;;;6220804;22;20244;-82
2022/02/03 22:50:05;;;;;;;9.70;8.70;;;5.70;99.90;;;;;;6259111;22;21224;-81
2022/02/03 22:52:32;;;;;;;9.90;8.90;;;5.70;99.90;;;;;;6225259;22;20779;-82
2022/02/03 22:54:57;;;;;;;11.90;9.17;;;5.70;99.90;;;;;;6221304;22;20391;-82
2022/02/03 22:57:23;;;;;;;12.10;10.30;;;5.60;99.90;;;;;;6219524;22;20750;-82
2022/02/03 23:02:30;;;;;;;9.77;8.77;;;5.60;99.90;;;;;;6273122;22;20139;-82
2022/02/03 23:04:55;;;;;;;9.93;8.57;;;5.60;99.90;;;;;;6239094;22;20709;-82
2022/02/03 23:07:34;;;;;;;9.33;8.33;;;5.60;99.90;;;;;;6226618;22;20181;-82
2022/02/03 23:10:14;;;;;;;9.87;7.87;;;5.50;99.90;;;;;;6221341;22;20467;-82
2022/02/03 23:18:07;;;;;;;8.40;7.60;;;5.40;99.90;;;;;;6248756;22;20360;-82
2022/02/03 23:23:26;;;;;;;8.57;7.60;;;5.40;99.90;;;;;;6244585;22;20482;-82
2022/02/03 23:25:56;;;;;;;9.93;7.47;;;5.30;99.90;;;;;;6221028;22;20394;-82
2022/02/03 23:28:30;;;;;;;8.37;7.53;;;5.30;99.90;;;;;;6247855;22;20457;-82
2022/02/03 23:30:59;;;;;;;8.50;7.27;;;5.30;99.90;;;;;;6247460;22;20369;-82
2022/02/03 23:33:27;;;;;;;9.53;8.53;;;5.20;99.90;;;;;;6247326;22;20440;-82
2022/02/03 23:35:53;;;;;;;8.63;7.50;;;5.10;99.90;;;;;;6221250;22;20419;-82
2022/02/03 23:49:49;;;;;;;8.03;7.33;;;4.40;99.90;;;;;;6246580;22;20464;-82
